createdAt,value
2023-01-13T00:00:16.197Z,80.73
2023-01-13T00:01:16.186Z,80.79
2023-01-13T00:02:16.142Z,80.63
2023-01-13T00:03:16.105Z,80.42
2023-01-13T00:04:16.105Z,80.36
2023-01-13T00:05:16.107Z,80.17
2023-01-13T00:06:16.166Z,80.05
2023-01-13T00:07:16.624Z,80.14
2023-01-13T00:08:16.075Z,80.23
2023-01-13T00:09:16.270Z,80.20
2023-01-13T00:10:16.046Z,79.82
2023-01-13T00:11:16.052Z,79.67
2023-01-13T00:12:16.048Z,79.51
2023-01-13T00:13:16.055Z,79.35
2023-01-13T00:14:16.058Z,79.34
2023-01-13T00:15:16.068Z,79.33
2023-01-13T00:16:16.047Z,79.47
2023-01-13T00:17:16.149Z,79.55
2023-01-13T00:18:15.965Z,79.65
2023-01-13T00:19:15.977Z,79.82
2023-01-13T00:20:16.064Z,80.02
2023-01-13T00:21:15.955Z,80.17
2023-01-13T00:22:15.999Z,80.35
2023-01-13T00:23:16.059Z,80.16
2023-01-13T00:24:15.973Z,80.12
2023-01-13T00:25:15.901Z,80.04
2023-01-13T00:26:15.881Z,80.01
2023-01-13T00:27:15.898Z,80.05
2023-01-13T00:28:15.911Z,80.07
2023-01-13T00:29:15.868Z,79.53
2023-01-13T00:30:15.845Z,79.31
2023-01-13T00:31:16.799Z,79.24
2023-01-13T00:32:15.877Z,78.95
2023-01-13T00:33:15.805Z,78.75
2023-01-13T00:34:15.840Z,78.70
2023-01-13T00:35:15.796Z,78.62
2023-01-13T00:36:15.813Z,78.37
2023-01-13T00:37:15.807Z,78.35
2023-01-13T00:38:15.761Z,78.35
2023-01-13T00:39:15.765Z,78.32
2023-01-13T00:40:16.364Z,78.32
2023-01-13T00:41:15.741Z,78.27
2023-01-13T00:42:15.711Z,78.29
2023-01-13T00:43:15.726Z,78.46
2023-01-13T00:44:15.722Z,78.26
2023-01-13T00:45:15.765Z,78.19
2023-01-13T00:46:16.725Z,78.21
2023-01-13T00:47:15.731Z,78.03
2023-01-13T00:48:16.250Z,77.93
2023-01-13T00:49:15.682Z,77.71
2023-01-13T00:50:15.652Z,77.72
2023-01-13T00:51:16.443Z,77.87
2023-01-13T00:52:15.628Z,77.85
2023-01-13T00:53:16.024Z,77.91
2023-01-13T00:54:15.641Z,78.08
2023-01-13T00:55:15.638Z,78.06
2023-01-13T00:56:18.101Z,77.99
2023-01-13T00:57:15.568Z,77.90
2023-01-13T00:58:15.567Z,77.81
2023-01-13T00:59:15.627Z,77.90
2023-01-13T01:00:15.629Z,77.93
2023-01-13T01:01:15.638Z,78.02
2023-01-13T01:02:15.650Z,78.13
2023-01-13T01:03:16.251Z,78.27
2023-01-13T01:04:15.739Z,78.28
2023-01-13T01:05:15.734Z,78.42
2023-01-13T01:06:15.513Z,78.14
2023-01-13T01:07:15.781Z,78.11
2023-01-13T01:08:15.528Z,78.07
2023-01-13T01:09:15.477Z,78.06
2023-01-13T01:10:15.834Z,78.03
2023-01-13T01:11:15.439Z,78.06
2023-01-13T01:12:16.370Z,78.01
2023-01-13T01:13:15.420Z,77.83
2023-01-13T01:14:15.479Z,77.49
2023-01-13T01:15:15.455Z,77.37
2023-01-13T01:16:15.569Z,77.04
2023-01-13T01:17:15.690Z,76.94
2023-01-13T01:18:15.380Z,76.96
2023-01-13T01:19:15.404Z,77.18
2023-01-13T01:20:15.361Z,77.28
2023-01-13T01:21:15.364Z,77.29
2023-01-13T01:22:15.344Z,77.41
2023-01-13T01:23:15.370Z,77.44
2023-01-13T01:24:15.354Z,77.62
2023-01-13T01:25:15.288Z,77.87
2023-01-13T01:26:16.261Z,77.91
2023-01-13T01:27:15.296Z,78.08
2023-01-13T01:28:15.253Z,78.27
2023-01-13T01:29:15.261Z,78.26
2023-01-13T01:30:15.237Z,78.34
2023-01-13T01:31:15.305Z,78.23
2023-01-13T01:32:15.228Z,78.20
2023-01-13T01:33:15.221Z,77.92
2023-01-13T01:34:15.206Z,77.93
2023-01-13T01:35:15.191Z,77.99
2023-01-13T01:36:15.854Z,77.91
2023-01-13T01:37:15.174Z,77.77
2023-01-13T01:38:15.274Z,77.70
2023-01-13T01:39:15.164Z,77.61
2023-01-13T01:40:15.180Z,77.37
2023-01-13T01:41:15.145Z,77.28
2023-01-13T01:42:15.169Z,77.30
2023-01-13T01:43:15.110Z,77.16
2023-01-13T01:44:15.117Z,77.10
2023-01-13T01:45:15.077Z,77.13
2023-01-13T01:46:15.208Z,77.12
2023-01-13T01:47:16.271Z,76.93
2023-01-13T01:48:15.090Z,76.91
2023-01-13T01:49:15.052Z,77.16
2023-01-13T01:50:15.364Z,76.98
2023-01-13T01:51:15.032Z,76.87
2023-01-13T01:52:15.352Z,76.73
2023-01-13T01:53:15.027Z,76.51
2023-01-13T01:54:15.018Z,76.44
2023-01-13T01:55:15.648Z,76.45
2023-01-13T01:56:15.502Z,76.52
2023-01-13T01:57:14.988Z,76.57
2023-01-13T01:58:14.993Z,76.66
2023-01-13T01:59:15.006Z,76.73
2023-01-13T02:00:15.200Z,76.48
2023-01-13T02:01:15.278Z,76.30
2023-01-13T02:02:15.405Z,76.29
2023-01-13T02:03:14.946Z,76.32
2023-01-13T02:04:15.450Z,76.30
2023-01-13T02:05:14.939Z,76.13
2023-01-13T02:06:14.941Z,75.96
2023-01-13T02:07:14.895Z,75.79
2023-01-13T02:08:14.874Z,75.67
2023-01-13T02:09:14.900Z,75.58
2023-01-13T02:10:14.938Z,75.57
2023-01-13T02:11:14.822Z,75.32
2023-01-13T02:12:14.845Z,75.13
2023-01-13T02:13:14.874Z,75.13
2023-01-13T02:14:14.809Z,75.24
2023-01-13T02:15:14.837Z,75.34
2023-01-13T02:16:15.348Z,75.23
2023-01-13T02:17:14.792Z,75.36
2023-01-13T02:18:14.769Z,75.45
2023-01-13T02:19:14.777Z,75.59
2023-01-13T02:20:14.750Z,75.57
2023-01-13T02:21:14.794Z,75.15
2023-01-13T02:22:14.716Z,75.12
2023-01-13T02:23:14.742Z,74.88
2023-01-13T02:24:14.748Z,74.89
2023-01-13T02:25:14.695Z,75.01
2023-01-13T02:26:14.679Z,75.00
2023-01-13T02:27:14.672Z,74.87
2023-01-13T02:28:14.768Z,74.77
2023-01-13T02:29:14.653Z,74.91
2023-01-13T02:30:14.629Z,75.04
2023-01-13T02:31:14.760Z,75.05
2023-01-13T02:32:14.665Z,75.07
2023-01-13T02:33:14.686Z,75.17
2023-01-13T02:34:14.593Z,75.14
2023-01-13T02:35:14.608Z,75.28
2023-01-13T02:36:14.607Z,75.22
2023-01-13T02:37:14.560Z,75.14
2023-01-13T02:38:14.663Z,75.22
2023-01-13T02:39:14.571Z,75.19
2023-01-13T02:40:14.779Z,75.23
2023-01-13T02:41:14.548Z,75.04
2023-01-13T02:42:15.063Z,75.00
2023-01-13T02:43:14.498Z,74.78
2023-01-13T02:44:15.007Z,74.82
2023-01-13T02:45:14.503Z,75.03
2023-01-13T02:46:14.776Z,75.10
2023-01-13T02:47:14.568Z,75.20
2023-01-13T02:48:14.851Z,74.97
2023-01-13T02:49:15.215Z,75.12
2023-01-13T02:50:14.441Z,75.27
2023-01-13T02:51:14.799Z,75.07
2023-01-13T02:52:14.454Z,75.11
2023-01-13T02:53:14.414Z,75.03
2023-01-13T02:54:14.406Z,75.07
2023-01-13T02:55:14.431Z,75.11
2023-01-13T02:56:14.420Z,75.08
2023-01-13T02:57:14.364Z,75.07
2023-01-13T02:58:16.249Z,74.92
2023-01-13T02:59:14.391Z,74.71
2023-01-13T03:00:17.390Z,74.63
2023-01-13T03:01:14.467Z,74.64
2023-01-13T03:02:16.124Z,74.56
2023-01-13T03:03:14.327Z,74.63
2023-01-13T03:04:14.352Z,74.33
2023-01-13T03:05:14.300Z,74.21
2023-01-13T03:06:14.297Z,74.03
2023-01-13T03:07:14.294Z,73.91
2023-01-13T03:08:15.122Z,74.16
2023-01-13T03:09:14.277Z,74.29
2023-01-13T03:10:14.234Z,74.31
2023-01-13T03:11:14.330Z,74.20
2023-01-13T03:12:14.240Z,74.32
2023-01-13T03:13:14.228Z,74.22
2023-01-13T03:14:14.214Z,74.20
2023-01-13T03:15:14.206Z,73.95
2023-01-13T03:16:14.203Z,73.83
2023-01-13T03:17:14.217Z,73.89
2023-01-13T03:18:14.183Z,73.84
2023-01-13T03:19:14.161Z,73.80
2023-01-13T03:20:14.142Z,73.65
2023-01-13T03:21:14.186Z,73.56
2023-01-13T03:22:14.131Z,73.69
2023-01-13T03:23:14.122Z,73.80
2023-01-13T03:24:14.118Z,73.82
2023-01-13T03:25:14.114Z,73.90
2023-01-13T03:26:14.173Z,73.84
2023-01-13T03:27:14.087Z,74.05
2023-01-13T03:28:14.061Z,73.89
2023-01-13T03:29:14.131Z,74.02
2023-01-13T03:30:14.046Z,73.97
2023-01-13T03:31:14.836Z,73.97
2023-01-13T03:32:14.058Z,74.01
2023-01-13T03:33:14.021Z,73.95
2023-01-13T03:34:14.030Z,73.97
2023-01-13T03:35:13.985Z,74.10
2023-01-13T03:36:14.026Z,74.14
2023-01-13T03:37:13.962Z,73.99
2023-01-13T03:38:13.959Z,73.92
2023-01-13T03:39:13.944Z,73.87
2023-01-13T03:40:13.975Z,74.09
2023-01-13T03:41:13.929Z,74.16
2023-01-13T03:42:13.931Z,74.19
2023-01-13T03:43:13.951Z,73.98
2023-01-13T03:44:13.936Z,73.99
2023-01-13T03:45:13.889Z,74.21
2023-01-13T03:46:15.672Z,73.95
2023-01-13T03:47:13.899Z,74.03
2023-01-13T03:48:13.861Z,73.82
2023-01-13T03:49:13.885Z,73.82
2023-01-13T03:50:18.157Z,73.65
2023-01-13T03:51:14.140Z,73.53
2023-01-13T03:52:14.495Z,73.74
2023-01-13T03:53:15.267Z,73.66
2023-01-13T03:54:18.656Z,73.75
2023-01-13T03:55:13.804Z,73.69
2023-01-13T03:56:13.829Z,73.76
2023-01-13T03:57:13.770Z,73.67
2023-01-13T03:58:13.844Z,73.64
2023-01-13T03:59:13.777Z,73.55
2023-01-13T04:00:13.774Z,73.58
2023-01-13T04:01:13.820Z,73.66
2023-01-13T04:02:13.896Z,73.83
2023-01-13T04:03:13.787Z,74.01
2023-01-13T04:04:13.721Z,73.97
2023-01-13T04:05:13.718Z,74.11
2023-01-13T04:06:13.729Z,74.06
2023-01-13T04:07:13.658Z,74.08
2023-01-13T04:08:13.663Z,73.96
2023-01-13T04:09:13.703Z,73.93
2023-01-13T04:10:13.746Z,73.67
2023-01-13T04:11:13.901Z,73.75
2023-01-13T04:12:13.627Z,73.92
2023-01-13T04:13:13.599Z,74.04
2023-01-13T04:14:13.664Z,74.09
2023-01-13T04:15:13.602Z,74.06
2023-01-13T04:16:13.705Z,73.93
2023-01-13T04:17:13.608Z,74.00
2023-01-13T04:18:13.588Z,74.04
2023-01-13T04:19:13.541Z,74.19
2023-01-13T04:20:13.715Z,74.05
2023-01-13T04:21:13.519Z,73.98
2023-01-13T04:22:13.567Z,73.99
2023-01-13T04:23:13.520Z,73.98
2023-01-13T04:24:13.521Z,73.86
2023-01-13T04:25:13.599Z,73.82
2023-01-13T04:26:13.513Z,73.77
2023-01-13T04:27:13.488Z,73.92
2023-01-13T04:28:13.462Z,74.01
2023-01-13T04:29:15.561Z,73.88
2023-01-13T04:30:13.427Z,73.98
2023-01-13T04:31:13.505Z,74.03
2023-01-13T04:32:13.439Z,74.15
2023-01-13T04:33:13.419Z,74.26
2023-01-13T04:34:13.398Z,74.20
2023-01-13T04:35:13.442Z,74.26
2023-01-13T04:36:13.405Z,74.14
2023-01-13T04:37:13.373Z,74.14
2023-01-13T04:38:13.356Z,74.19
2023-01-13T04:39:13.367Z,74.17
2023-01-13T04:40:13.343Z,74.34
2023-01-13T04:41:13.395Z,74.43
2023-01-13T04:42:13.363Z,74.42
2023-01-13T04:43:13.326Z,74.19
2023-01-13T04:44:13.321Z,74.24
2023-01-13T04:45:13.367Z,74.40
2023-01-13T04:46:13.299Z,74.50
2023-01-13T04:47:13.264Z,74.52
2023-01-13T04:48:13.254Z,74.69
2023-01-13T04:49:13.281Z,74.73
2023-01-13T04:50:13.241Z,74.83
2023-01-13T04:51:13.243Z,74.80
2023-01-13T04:52:13.232Z,74.81
2023-01-13T04:53:13.296Z,74.94
2023-01-13T04:54:13.198Z,74.91
2023-01-13T04:55:13.188Z,74.78
2023-01-13T04:56:13.171Z,74.80
2023-01-13T04:57:13.205Z,74.81
2023-01-13T04:58:13.158Z,74.82
2023-01-13T04:59:13.166Z,74.86
2023-01-13T05:00:13.140Z,74.93
2023-01-13T05:01:13.190Z,74.95
2023-01-13T05:02:13.132Z,75.10
2023-01-13T05:03:13.116Z,75.26
2023-01-13T05:04:13.098Z,75.27
2023-01-13T05:05:13.124Z,75.12
2023-01-13T05:06:13.079Z,74.90
2023-01-13T05:07:13.064Z,74.99
2023-01-13T05:08:13.101Z,75.10
2023-01-13T05:09:13.066Z,75.22
2023-01-13T05:10:13.037Z,75.39
2023-01-13T05:11:13.095Z,75.33
2023-01-13T05:12:13.037Z,75.40
2023-01-13T05:13:13.023Z,75.41
2023-01-13T05:14:13.017Z,75.39
2023-01-13T05:15:13.078Z,75.29
2023-01-13T05:16:13.081Z,75.42
2023-01-13T05:17:12.994Z,75.58
2023-01-13T05:18:12.969Z,75.63
2023-01-13T05:19:12.941Z,75.68
2023-01-13T05:20:12.960Z,75.79
2023-01-13T05:21:12.917Z,75.95
2023-01-13T05:22:12.948Z,75.94
2023-01-13T05:23:12.921Z,75.80
2023-01-13T05:24:12.897Z,75.85
2023-01-13T05:25:12.896Z,75.89
2023-01-13T05:26:12.877Z,75.79
2023-01-13T05:27:12.884Z,75.96
2023-01-13T05:28:12.885Z,76.10
2023-01-13T05:29:13.800Z,76.24
2023-01-13T05:30:13.204Z,76.42
2023-01-13T05:31:13.370Z,76.52
2023-01-13T05:32:14.139Z,76.57
2023-01-13T05:33:12.815Z,76.69
2023-01-13T05:34:12.832Z,76.70
2023-01-13T05:35:12.832Z,76.78
2023-01-13T05:36:12.795Z,76.97
2023-01-13T05:37:12.761Z,76.98
2023-01-13T05:38:12.788Z,77.03
2023-01-13T05:39:12.843Z,76.95
2023-01-13T05:40:12.749Z,76.82
2023-01-13T05:41:12.765Z,76.74
2023-01-13T05:42:12.727Z,76.83
2023-01-13T05:43:12.700Z,77.04
2023-01-13T05:44:12.883Z,77.19
2023-01-13T05:45:12.688Z,77.15
2023-01-13T05:46:12.766Z,77.00
2023-01-13T05:47:12.706Z,77.15
2023-01-13T05:48:12.672Z,77.30
2023-01-13T05:49:12.640Z,77.37
2023-01-13T05:50:12.672Z,77.39
2023-01-13T05:51:12.633Z,77.33
2023-01-13T05:52:12.657Z,77.39
2023-01-13T05:53:12.653Z,77.45
2023-01-13T05:54:12.596Z,77.50
2023-01-13T05:55:12.611Z,77.49
2023-01-13T05:56:12.615Z,77.58
2023-01-13T05:57:12.571Z,77.55
2023-01-13T05:58:12.608Z,77.45
2023-01-13T05:59:12.559Z,77.52
2023-01-13T06:00:12.537Z,77.79
2023-01-13T06:01:12.561Z,77.88
2023-01-13T06:02:12.515Z,78.02
2023-01-13T06:03:12.616Z,78.01
2023-01-13T06:04:12.617Z,77.97
2023-01-13T06:05:12.479Z,78.11
2023-01-13T06:06:12.519Z,77.97
2023-01-13T06:07:12.466Z,77.95
2023-01-13T06:08:12.446Z,78.16
2023-01-13T06:09:12.511Z,78.27
2023-01-13T06:10:12.425Z,78.31
2023-01-13T06:11:12.442Z,78.41
2023-01-13T06:12:12.448Z,78.42
2023-01-13T06:13:12.410Z,78.49
2023-01-13T06:14:12.415Z,78.75
2023-01-13T06:15:12.402Z,78.69
2023-01-13T06:16:12.509Z,78.70
2023-01-13T06:17:12.362Z,78.80
2023-01-13T06:18:12.451Z,78.77
2023-01-13T06:19:12.466Z,78.67
2023-01-13T06:20:12.841Z,78.73
2023-01-13T06:21:12.326Z,78.82
2023-01-13T06:22:12.764Z,78.88
2023-01-13T06:23:12.312Z,79.06
2023-01-13T06:24:12.303Z,79.15
2023-01-13T06:25:12.642Z,79.31
2023-01-13T06:26:12.332Z,79.34
2023-01-13T06:27:12.308Z,79.34
2023-01-13T06:28:12.305Z,79.37
2023-01-13T06:29:12.233Z,79.51
2023-01-13T06:30:12.211Z,79.60
2023-01-13T06:31:12.286Z,79.76
2023-01-13T06:32:12.636Z,79.70
2023-01-13T06:33:12.498Z,79.73
2023-01-13T06:34:12.531Z,79.77
2023-01-13T06:35:12.467Z,79.78
2023-01-13T06:36:12.323Z,79.91
2023-01-13T06:37:12.384Z,80.11
2023-01-13T06:38:12.189Z,80.14
2023-01-13T06:39:12.094Z,80.15
2023-01-13T06:40:12.084Z,80.20
2023-01-13T06:41:12.094Z,80.31
2023-01-13T06:42:12.151Z,80.32
2023-01-13T06:43:13.802Z,80.42
2023-01-13T06:44:12.085Z,80.49
2023-01-13T06:45:12.053Z,80.61
2023-01-13T06:46:12.047Z,80.63
2023-01-13T06:47:12.042Z,80.73
2023-01-13T06:48:12.056Z,80.85
2023-01-13T06:49:12.006Z,80.89
2023-01-13T06:50:12.010Z,80.75
2023-01-13T06:51:11.995Z,80.81
2023-01-13T06:52:11.973Z,80.89
2023-01-13T06:53:11.991Z,80.98
2023-01-13T06:54:12.015Z,80.98
2023-01-13T06:55:12.011Z,81.06
2023-01-13T06:56:12.001Z,81.08
2023-01-13T06:57:11.921Z,81.26
2023-01-13T06:58:11.915Z,81.22
2023-01-13T06:59:11.939Z,81.23
2023-01-13T07:00:11.885Z,81.23
2023-01-13T07:01:12.069Z,81.09
2023-01-13T07:02:12.075Z,81.10
2023-01-13T07:03:11.849Z,81.09
2023-01-13T07:04:11.835Z,81.01
2023-01-13T07:05:11.877Z,81.01
2023-01-13T07:06:11.817Z,80.97
2023-01-13T07:07:11.857Z,80.98
2023-01-13T07:08:11.826Z,80.94
2023-01-13T07:09:11.777Z,81.01
2023-01-13T07:10:11.791Z,80.98
2023-01-13T07:11:11.865Z,81.06
2023-01-13T07:12:11.760Z,81.15
2023-01-13T07:13:11.793Z,81.20
2023-01-13T07:14:11.764Z,81.07
2023-01-13T07:15:11.730Z,80.95
2023-01-13T07:16:11.747Z,80.93
2023-01-13T07:17:11.758Z,80.81
2023-01-13T07:18:11.710Z,80.80
2023-01-13T07:19:11.703Z,80.78
2023-01-13T07:20:11.724Z,80.76
2023-01-13T07:21:11.661Z,80.84
2023-01-13T07:22:11.666Z,80.86
2023-01-13T07:23:11.740Z,80.77
2023-01-13T07:24:11.666Z,80.70
2023-01-13T07:25:11.653Z,80.70
2023-01-13T07:26:11.665Z,80.50
2023-01-13T07:27:11.694Z,80.29
2023-01-13T07:28:11.668Z,80.34
2023-01-13T07:29:11.593Z,80.37
2023-01-13T07:30:11.612Z,80.46
2023-01-13T07:31:11.608Z,80.41
2023-01-13T07:32:11.583Z,80.40
2023-01-13T07:33:11.576Z,80.35
2023-01-13T07:34:11.584Z,80.34
2023-01-13T07:35:11.520Z,80.43
2023-01-13T07:36:11.583Z,80.30
2023-01-13T07:37:11.539Z,80.37
2023-01-13T07:38:11.512Z,80.44
2023-01-13T07:39:11.563Z,80.51
2023-01-13T07:40:11.523Z,80.59
2023-01-13T07:41:11.698Z,80.53
2023-01-13T07:42:11.531Z,80.56
2023-01-13T07:43:11.459Z,80.63
2023-01-13T07:44:11.457Z,80.71
2023-01-13T07:45:12.424Z,80.69
2023-01-13T07:46:11.465Z,80.68
2023-01-13T07:47:11.436Z,80.65
2023-01-13T07:48:18.448Z,80.67
2023-01-13T07:49:11.493Z,80.71
2023-01-13T07:50:11.483Z,80.83
2023-01-13T07:51:11.406Z,80.85
2023-01-13T07:52:11.398Z,80.92
2023-01-13T07:53:11.380Z,81.00
2023-01-13T07:54:11.405Z,80.94
2023-01-13T07:55:11.492Z,80.88
2023-01-13T07:56:11.444Z,80.82
2023-01-13T07:57:11.408Z,80.82
2023-01-13T07:58:11.316Z,80.94
2023-01-13T07:59:11.290Z,80.97
2023-01-13T08:00:12.910Z,80.94
2023-01-13T08:01:11.416Z,80.93
2023-01-13T08:02:11.510Z,81.01
2023-01-13T08:03:11.299Z,81.00
2023-01-13T08:04:11.268Z,81.06
2023-01-13T08:05:11.223Z,81.15
2023-01-13T08:06:11.274Z,81.14
2023-01-13T08:07:11.235Z,81.17
2023-01-13T08:08:11.193Z,81.27
2023-01-13T08:09:11.207Z,81.26
2023-01-13T08:10:11.180Z,81.32
2023-01-13T08:11:11.221Z,81.30
2023-01-13T08:12:11.173Z,81.35
2023-01-13T08:13:11.135Z,81.38
2023-01-13T08:14:11.142Z,81.42
2023-01-13T08:15:11.475Z,81.40
2023-01-13T08:16:11.228Z,81.42
2023-01-13T08:17:11.121Z,81.41
2023-01-13T08:18:11.181Z,81.44
2023-01-13T08:19:11.096Z,81.48
2023-01-13T08:20:11.115Z,81.46
2023-01-13T08:21:11.727Z,81.46
2023-01-13T08:22:11.090Z,81.50
2023-01-13T08:23:11.048Z,81.46
2023-01-13T08:24:11.058Z,81.51
2023-01-13T08:25:11.055Z,81.47
2023-01-13T08:26:11.066Z,81.52
2023-01-13T08:27:11.030Z,81.51
2023-01-13T08:28:11.471Z,81.51
2023-01-13T08:29:12.995Z,81.57
2023-01-13T08:30:10.974Z,81.66
2023-01-13T08:31:11.060Z,81.62
2023-01-13T08:32:10.979Z,81.72
2023-01-13T08:33:11.028Z,81.55
2023-01-13T08:34:10.923Z,81.55
2023-01-13T08:35:10.938Z,81.62
2023-01-13T08:36:10.942Z,81.67
2023-01-13T08:37:10.968Z,81.67
2023-01-13T08:38:10.920Z,81.68
2023-01-13T08:39:10.972Z,81.67
2023-01-13T08:40:10.881Z,81.63
2023-01-13T08:41:10.881Z,81.68
2023-01-13T08:42:10.979Z,81.63
2023-01-13T08:43:10.904Z,81.61
2023-01-13T08:44:10.837Z,81.62
2023-01-13T08:45:10.881Z,81.51
2023-01-13T08:46:10.860Z,81.37
2023-01-13T08:47:10.858Z,81.38
2023-01-13T08:48:10.789Z,81.43
2023-01-13T08:49:10.799Z,81.36
2023-01-13T08:50:10.789Z,81.46
2023-01-13T08:51:10.838Z,81.45
2023-01-13T08:52:10.759Z,81.33
2023-01-13T08:53:10.776Z,81.35
2023-01-13T08:54:10.731Z,81.38
2023-01-13T08:55:10.736Z,81.28
2023-01-13T08:56:10.717Z,81.26
2023-01-13T08:57:10.816Z,81.21
2023-01-13T08:58:15.726Z,81.10
2023-01-13T08:59:10.717Z,81.04
2023-01-13T09:00:10.666Z,80.88
2023-01-13T09:01:10.877Z,80.80
2023-01-13T09:02:10.854Z,80.54
2023-01-13T09:03:10.650Z,80.48
2023-01-13T09:04:10.661Z,80.58
2023-01-13T09:05:10.636Z,80.48
2023-01-13T09:06:10.647Z,80.38
2023-01-13T09:07:10.649Z,80.36
2023-01-13T09:08:10.640Z,80.39
2023-01-13T09:09:10.587Z,80.42
2023-01-13T09:10:10.607Z,80.43
2023-01-13T09:11:10.570Z,80.36
2023-01-13T09:12:10.574Z,80.51
2023-01-13T09:13:10.593Z,80.59
2023-01-13T09:14:10.537Z,80.43
2023-01-13T09:15:10.613Z,80.33
2023-01-13T09:16:10.653Z,80.14
2023-01-13T09:17:10.504Z,80.07
2023-01-13T09:18:10.508Z,80.05
2023-01-13T09:19:10.528Z,79.98
2023-01-13T09:20:10.507Z,79.79
2023-01-13T09:21:10.458Z,79.91
2023-01-13T09:22:10.470Z,80.03
2023-01-13T09:23:11.379Z,80.04
2023-01-13T09:24:10.430Z,80.05
2023-01-13T09:25:10.449Z,79.75
2023-01-13T09:26:10.422Z,79.70
2023-01-13T09:27:10.469Z,79.65
2023-01-13T09:28:10.409Z,79.50
2023-01-13T09:29:10.396Z,79.39
2023-01-13T09:30:10.411Z,79.31
2023-01-13T09:31:10.427Z,79.29
2023-01-13T09:32:10.382Z,79.28
2023-01-13T09:33:10.451Z,79.20
2023-01-13T09:34:10.426Z,79.21
2023-01-13T09:35:10.365Z,79.07
2023-01-13T09:36:10.303Z,78.80
2023-01-13T09:37:10.335Z,78.39
2023-01-13T09:38:10.301Z,78.41
2023-01-13T09:39:10.305Z,78.26
2023-01-13T09:40:10.259Z,78.33
2023-01-13T09:41:10.326Z,78.26
2023-01-13T09:42:10.241Z,77.95
2023-01-13T09:43:10.277Z,77.90
2023-01-13T09:44:10.229Z,77.74
2023-01-13T09:45:10.292Z,77.69
2023-01-13T09:46:10.258Z,77.75
2023-01-13T09:47:12.034Z,77.86
2023-01-13T09:48:10.212Z,77.90
2023-01-13T09:49:10.298Z,77.67
2023-01-13T09:50:10.196Z,77.60
2023-01-13T09:51:10.253Z,77.67
2023-01-13T09:52:10.153Z,77.53
2023-01-13T09:53:10.155Z,77.60
2023-01-13T09:54:10.151Z,77.54
2023-01-13T09:55:10.156Z,77.49
2023-01-13T09:56:10.162Z,77.56
2023-01-13T09:57:10.198Z,77.89
2023-01-13T09:58:10.778Z,77.59
2023-01-13T09:59:10.109Z,77.48
2023-01-13T10:00:10.143Z,77.43
2023-01-13T10:01:10.124Z,77.59
2023-01-13T10:02:10.058Z,77.28
2023-01-13T10:03:10.192Z,77.20
2023-01-13T10:04:10.027Z,77.34
2023-01-13T10:05:10.124Z,77.14
2023-01-13T10:06:10.140Z,77.05
2023-01-13T10:07:10.059Z,76.79
2023-01-13T10:08:10.007Z,76.71
2023-01-13T10:09:09.980Z,76.75
2023-01-13T10:10:09.978Z,77.02
2023-01-13T10:11:09.971Z,77.00
2023-01-13T10:12:09.983Z,77.17
2023-01-13T10:13:09.942Z,77.19
2023-01-13T10:14:09.958Z,76.80
2023-01-13T10:15:09.917Z,76.81
2023-01-13T10:16:09.973Z,76.75
2023-01-13T10:17:09.913Z,76.60
2023-01-13T10:18:09.918Z,76.40
2023-01-13T10:19:09.893Z,76.22
2023-01-13T10:20:09.889Z,76.00
2023-01-13T10:21:10.356Z,75.88
2023-01-13T10:22:10.202Z,76.12
2023-01-13T10:23:09.943Z,76.42
2023-01-13T10:24:09.855Z,76.16
2023-01-13T10:25:09.843Z,75.82
2023-01-13T10:26:09.847Z,75.67
2023-01-13T10:27:09.850Z,75.85
2023-01-13T10:28:09.819Z,75.91
2023-01-13T10:29:09.852Z,75.94
2023-01-13T10:30:10.091Z,75.65
2023-01-13T10:31:09.886Z,75.66
2023-01-13T10:32:10.182Z,75.71
2023-01-13T10:33:09.820Z,75.63
2023-01-13T10:34:09.717Z,75.35
2023-01-13T10:35:10.279Z,75.77
2023-01-13T10:36:10.130Z,76.15
2023-01-13T10:37:09.876Z,76.00
2023-01-13T10:38:09.700Z,75.92
2023-01-13T10:39:10.216Z,75.91
2023-01-13T10:40:10.367Z,76.08
2023-01-13T10:41:09.977Z,76.05
2023-01-13T10:42:09.903Z,76.14
2023-01-13T10:43:10.034Z,76.34
2023-01-13T10:44:10.104Z,76.42
2023-01-13T10:45:09.650Z,76.49
2023-01-13T10:46:09.638Z,76.44
2023-01-13T10:47:09.604Z,76.13
2023-01-13T10:48:09.611Z,76.09
2023-01-13T10:49:09.659Z,76.38
2023-01-13T10:50:09.917Z,76.59
2023-01-13T10:51:09.622Z,76.90
2023-01-13T10:52:09.610Z,77.22
2023-01-13T10:53:09.581Z,78.02
2023-01-13T10:54:09.522Z,78.24
2023-01-13T10:55:09.576Z,78.22
2023-01-13T10:56:09.511Z,78.68
2023-01-13T10:57:09.562Z,79.19
2023-01-13T10:58:09.499Z,79.17
2023-01-13T10:59:09.529Z,79.81
2023-01-13T11:00:09.513Z,79.93
2023-01-13T11:01:09.521Z,79.80
2023-01-13T11:02:24.197Z,79.69
2023-01-13T11:03:09.482Z,79.69
2023-01-13T11:04:09.427Z,79.74
2023-01-13T11:05:09.487Z,79.91
2023-01-13T11:06:09.406Z,79.63
2023-01-13T11:07:09.416Z,79.45
2023-01-13T11:08:09.409Z,79.59
2023-01-13T11:09:09.374Z,79.66
2023-01-13T11:10:09.367Z,79.54
2023-01-13T11:11:09.353Z,79.56
2023-01-13T11:12:09.365Z,79.35
2023-01-13T11:13:09.371Z,79.63
2023-01-13T11:14:09.411Z,79.90
2023-01-13T11:15:09.342Z,79.91
2023-01-13T11:16:09.401Z,79.70
2023-01-13T11:17:09.324Z,79.81
2023-01-13T11:18:09.328Z,79.87
2023-01-13T11:19:09.282Z,79.97
2023-01-13T11:20:09.311Z,80.03
2023-01-13T11:21:09.246Z,79.91
2023-01-13T11:22:09.283Z,79.61
2023-01-13T11:23:09.267Z,79.24
2023-01-13T11:24:09.564Z,79.19
2023-01-13T11:25:09.220Z,78.84
2023-01-13T11:26:09.272Z,78.79
2023-01-13T11:27:09.183Z,78.65
2023-01-13T11:28:09.200Z,78.43
2023-01-13T11:29:09.233Z,77.98
2023-01-13T11:30:09.261Z,77.14
2023-01-13T11:31:09.191Z,76.50
2023-01-13T11:32:09.198Z,76.47
2023-01-13T11:33:09.214Z,76.28
2023-01-13T11:34:09.325Z,76.14
2023-01-13T11:35:09.143Z,75.35
2023-01-13T11:36:09.142Z,75.82
2023-01-13T11:37:09.175Z,75.36
2023-01-13T11:38:09.110Z,75.30
2023-01-13T11:39:09.416Z,75.42
2023-01-13T11:40:09.087Z,75.87
2023-01-13T11:41:09.062Z,75.28
2023-01-13T11:42:09.054Z,75.40
2023-01-13T11:43:09.073Z,75.54
2023-01-13T11:44:09.032Z,75.47
2023-01-13T11:45:09.191Z,75.29
2023-01-13T11:46:09.134Z,75.47
2023-01-13T11:47:09.032Z,76.29
2023-01-13T11:48:09.035Z,76.76
2023-01-13T11:49:09.011Z,76.82
2023-01-13T11:50:08.967Z,77.64
2023-01-13T11:51:08.997Z,77.74
2023-01-13T11:52:08.952Z,77.75
2023-01-13T11:53:08.981Z,77.98
2023-01-13T11:54:09.100Z,78.01
2023-01-13T11:55:08.965Z,78.06
2023-01-13T11:56:08.888Z,78.13
2023-01-13T11:57:08.987Z,77.71
2023-01-13T11:58:08.912Z,78.20
2023-01-13T11:59:08.888Z,78.37
2023-01-13T12:00:08.891Z,78.41
2023-01-13T12:01:08.905Z,78.67
2023-01-13T12:02:08.873Z,78.72
2023-01-13T12:03:09.012Z,78.71
2023-01-13T12:04:08.842Z,78.33
2023-01-13T12:05:08.845Z,78.22
2023-01-13T12:06:08.992Z,78.20
2023-01-13T12:07:08.893Z,78.19
2023-01-13T12:08:08.886Z,78.35
2023-01-13T12:09:08.774Z,78.65
2023-01-13T12:10:13.248Z,78.26
2023-01-13T12:11:08.785Z,78.20
2023-01-13T12:12:08.800Z,78.40
2023-01-13T12:13:08.823Z,77.97
2023-01-13T12:14:08.868Z,77.41
2023-01-13T12:15:08.834Z,80.28
2023-01-13T12:16:08.756Z,82.49
2023-01-13T12:17:08.730Z,84.04
2023-01-13T12:18:08.832Z,85.13
2023-01-13T12:19:09.163Z,85.62
2023-01-13T12:20:08.770Z,85.78
2023-01-13T12:21:08.697Z,86.04
2023-01-13T12:22:08.641Z,86.50
2023-01-13T12:23:08.785Z,86.91
2023-01-13T12:24:08.812Z,86.98
2023-01-13T12:25:08.654Z,86.81
2023-01-13T12:26:08.604Z,86.92
2023-01-13T12:27:08.599Z,87.44
2023-01-13T12:28:08.771Z,87.60
2023-01-13T12:29:08.694Z,87.25
2023-01-13T12:30:08.688Z,86.95
2023-01-13T12:31:08.576Z,86.79
2023-01-13T12:32:08.539Z,86.62
2023-01-13T12:33:08.523Z,86.48
2023-01-13T12:34:08.514Z,86.53
2023-01-13T12:35:08.535Z,86.25
2023-01-13T12:36:08.561Z,86.02
2023-01-13T12:37:08.554Z,86.19
2023-01-13T12:38:08.496Z,86.42
2023-01-13T12:39:08.465Z,86.74
2023-01-13T12:40:08.586Z,86.63
2023-01-13T12:41:08.440Z,86.90
2023-01-13T12:42:08.928Z,86.65
2023-01-13T12:43:08.887Z,86.38
2023-01-13T12:44:08.429Z,86.04
2023-01-13T12:45:08.391Z,86.09
2023-01-13T12:46:08.907Z,85.91
2023-01-13T12:47:08.491Z,85.61
2023-01-13T12:48:08.395Z,85.75
2023-01-13T12:49:08.650Z,85.55
2023-01-13T12:50:09.597Z,86.06
2023-01-13T12:51:08.412Z,86.15
2023-01-13T12:52:08.361Z,86.03